To NAV CANADA Home Page Login to a new session Search on AWWS site Feedback and Comments Disclaimer Vers la page française équivalente Tips FAQ What's new on the site To the Forecasts and Observations / NOTAM section To "File a Flight Plan" website Publications and other links Update of the User's profile FIC Telephone Numbers My Weather Data Folder Route Weather Data Regional Weather Data Local Weather Data To the Forecasts and Observations / NOTAM section
Request Generated 07/31/2015 at 03:00:35 UTC . Weather information available at that time is displayed.

METAR/TAF

ISLAND LAKE/MB    

METAR CYIV 310200Z 32005KT 15SM FEW040 SCT080 18/11 A2974 RMK NS1AC4
NS TR WND ESTD SLP076 DENSITY ALT 1500FT=
METAR CYIV 310100Z 32005KT 15SM SCT040 BKN250 19/13 A2974 RMK SC4CI1
WND ESTD SLP076 DENSITY ALT 1600FT=
METAR CYIV 310000Z CCA 32005KT 15SM BKN020 19/12 A2975 RMK SC5 WND
ESTD SLP079 DENSITY ALT 1600FT=
METAR CYIV 310000Z 32005KT 15SM BKN020 19/12 A2975 RMK SC5 WND ESTD
SLP079 DENSITY ALT 1600FT=

TAF CYIV 310038Z 3101/3113 30006KT P6SM BKN020 TEMPO 3101/3104 BKN030
FM310400 29008KT P6SM SCT030 TEMPO 3104/3113 BKN020
RMK NXT FCST BY 310700Z=
Your time UTC time
Weather data provided by Environment Canada and NAV CANADA